sensor_id;sensor_type;location;lat;lon;timestamp;noise_LAeq;noise_LA_min;noise_LA_max;noise_LA01;noise_LA95
57092;Laerm;42968;52.094;4.328;2023-11-21T00:01:09;57.98;37.52;72.45;;
57092;Laerm;42968;52.094;4.328;2023-11-21T00:03:35;62.40;40.43;75.28;;
57092;Laerm;42968;52.094;4.328;2023-11-21T00:06:00;55.78;38.21;69.20;;
57092;Laerm;42968;52.094;4.328;2023-11-21T00:08:26;54.96;37.52;76.36;;
57092;Laerm;42968;52.094;4.328;2023-11-21T00:10:52;54.81;38.81;73.00;;
57092;Laerm;42968;52.094;4.328;2023-11-21T00:13:17;59.16;38.67;73.74;;
57092;Laerm;42968;52.094;4.328;2023-11-21T00:15:43;53.58;35.66;74.52;;
57092;Laerm;42968;52.094;4.328;2023-11-21T00:18:08;40.41;35.04;49.32;;
57092;Laerm;42968;52.094;4.328;2023-11-21T00:20:33;54.35;36.20;71.99;;
57092;Laerm;42968;52.094;4.328;2023-11-21T00:22:58;40.90;35.36;53.62;;
57092;Laerm;42968;52.094;4.328;2023-11-21T00:25:24;42.43;37.12;56.32;;
57092;Laerm;42968;52.094;4.328;2023-11-21T00:27:50;45.64;37.70;58.21;;
57092;Laerm;42968;52.094;4.328;2023-11-21T00:30:15;40.33;35.66;44.73;;
57092;Laerm;42968;52.094;4.328;2023-11-21T00:32:40;54.04;35.66;73.55;;
57092;Laerm;42968;52.094;4.328;2023-11-21T00:35:06;54.36;36.69;72.48;;
57092;Laerm;42968;52.094;4.328;2023-11-21T00:37:31;50.03;36.45;62.83;;
57092;Laerm;42968;52.094;4.328;2023-11-21T00:39:57;39.66;35.66;44.73;;
57092;Laerm;42968;52.094;4.328;2023-11-21T00:42:22;53.63;35.66;69.32;;
57092;Laerm;42968;52.094;4.328;2023-11-21T00:44:47;41.77;35.94;51.29;;
57092;Laerm;42968;52.094;4.328;2023-11-21T00:47:13;53.06;36.20;67.57;;
57092;Laerm;42968;52.094;4.328;2023-11-21T00:49:38;58.18;36.45;74.96;;
57092;Laerm;42968;52.094;4.328;2023-11-21T00:52:04;41.28;35.36;69.36;;
57092;Laerm;42968;52.094;4.328;2023-11-21T00:54:29;49.95;34.69;66.92;;
57092;Laerm;42968;52.094;4.328;2023-11-21T00:56:55;53.28;34.69;68.80;;
57092;Laerm;42968;52.094;4.328;2023-11-21T00:59:20;39.77;35.04;45.89;;
57092;Laerm;42968;52.094;4.328;2023-11-21T01:01:46;50.85;34.69;65.63;;
57092;Laerm;42968;52.094;4.328;2023-11-21T01:04:11;39.43;35.36;42.41;;
57092;Laerm;42968;52.094;4.328;2023-11-21T01:06:36;45.82;36.45;58.24;;
57092;Laerm;42968;52.094;4.328;2023-11-21T01:09:02;52.76;35.94;71.78;;
57092;Laerm;42968;52.094;4.328;2023-11-21T01:11:32;41.74;34.69;52.91;;
57092;Laerm;42968;52.094;4.328;2023-11-21T01:14:00;40.82;34.69;54.64;;
57092;Laerm;42968;52.094;4.328;2023-11-21T01:16:26;39.38;35.36;42.16;;
57092;Laerm;42968;52.094;4.328;2023-11-21T01:18:52;40.16;36.45;46.57;;
57092;Laerm;42968;52.094;4.328;2023-11-21T01:21:18;52.62;36.91;67.66;;
57092;Laerm;42968;52.094;4.328;2023-11-21T01:23:43;56.35;38.67;70.53;;
57092;Laerm;42968;52.094;4.328;2023-11-21T01:26:08;53.85;36.45;70.83;;
57092;Laerm;42968;52.094;4.328;2023-11-21T01:28:33;59.17;36.69;80.12;;
57092;Laerm;42968;52.094;4.328;2023-11-21T01:30:59;54.74;36.20;74.44;;
57092;Laerm;42968;52.094;4.328;2023-11-21T01:33:24;39.91;35.94;44.90;;
57092;Laerm;42968;52.094;4.328;2023-11-21T01:35:50;56.08;38.21;72.24;;
57092;Laerm;42968;52.094;4.328;2023-11-21T01:38:15;39.79;34.69;44.43;;
57092;Laerm;42968;52.094;4.328;2023-11-21T01:40:42;40.91;34.69;55.45;;
57092;Laerm;42968;52.094;4.328;2023-11-21T01:43:07;39.37;34.31;46.18;;
57092;Laerm;42968;52.094;4.328;2023-11-21T01:45:33;58.27;37.32;74.21;;
57092;Laerm;42968;52.094;4.328;2023-11-21T01:47:59;44.02;35.66;56.40;;
57092;Laerm;42968;52.094;4.328;2023-11-21T01:50:25;59.33;37.88;77.34;;
57092;Laerm;42968;52.094;4.328;2023-11-21T01:52:51;42.16;35.36;47.14;;
57092;Laerm;42968;52.094;4.328;2023-11-21T01:55:17;54.01;36.20;71.34;;
57092;Laerm;42968;52.094;4.328;2023-11-21T01:57:45;57.84;36.10;72.05;;
57092;Laerm;42968;52.094;4.328;2023-11-21T02:00:11;43.80;35.04;59.70;;
57092;Laerm;42968;52.094;4.328;2023-11-21T02:02:47;55.19;35.94;76.37;;
57092;Laerm;42968;52.094;4.328;2023-11-21T02:05:13;50.46;34.69;65.52;;
57092;Laerm;42968;52.094;4.328;2023-11-21T02:07:42;58.45;39.34;78.56;;
57092;Laerm;42968;52.094;4.328;2023-11-21T02:10:12;56.12;35.94;70.31;;
57092;Laerm;42968;52.094;4.328;2023-11-21T02:12:39;56.78;35.66;75.20;;
57092;Laerm;42968;52.094;4.328;2023-11-21T02:15:05;53.15;37.12;71.63;;
57092;Laerm;42968;52.094;4.328;2023-11-21T02:17:35;56.16;37.52;70.85;;
57092;Laerm;42968;52.094;4.328;2023-11-21T02:20:00;42.31;37.32;45.80;;
57092;Laerm;42968;52.094;4.328;2023-11-21T02:22:26;55.84;35.94;72.97;;
57092;Laerm;42968;52.094;4.328;2023-11-21T02:24:52;42.00;35.04;55.68;;
57092;Laerm;42968;52.094;4.328;2023-11-21T02:27:18;59.61;37.12;74.90;;
57092;Laerm;42968;52.094;4.328;2023-11-21T02:29:46;55.22;35.66;72.65;;
57092;Laerm;42968;52.094;4.328;2023-11-21T02:32:12;54.75;35.04;72.70;;
57092;Laerm;42968;52.094;4.328;2023-11-21T02:34:37;40.03;34.69;49.85;;
57092;Laerm;42968;52.094;4.328;2023-11-21T02:37:04;55.01;35.36;73.92;;
57092;Laerm;42968;52.094;4.328;2023-11-21T02:39:30;42.62;35.59;57.41;;
57092;Laerm;42968;52.094;4.328;2023-11-21T02:41:56;54.85;36.91;68.34;;
57092;Laerm;42968;52.094;4.328;2023-11-21T02:44:22;41.22;35.31;59.01;;
57092;Laerm;42968;52.094;4.328;2023-11-21T02:46:47;49.32;32.35;63.84;;
57092;Laerm;42968;52.094;4.328;2023-11-21T02:49:12;52.60;35.94;67.89;;
57092;Laerm;42968;52.094;4.328;2023-11-21T02:51:38;54.20;35.04;70.92;;
57092;Laerm;42968;52.094;4.328;2023-11-21T02:54:04;53.16;33.90;68.35;;
57092;Laerm;42968;52.094;4.328;2023-11-21T02:56:31;53.55;34.31;72.58;;
57092;Laerm;42968;52.094;4.328;2023-11-21T02:58:59;56.83;35.66;73.56;;
57092;Laerm;42968;52.094;4.328;2023-11-21T03:01:24;39.87;34.69;49.32;;
57092;Laerm;42968;52.094;4.328;2023-11-21T03:03:50;39.72;34.69;50.70;;
57092;Laerm;42968;52.094;4.328;2023-11-21T03:06:18;43.22;34.69;65.06;;
57092;Laerm;42968;52.094;4.328;2023-11-21T03:08:43;40.99;33.90;62.35;;
57092;Laerm;42968;52.094;4.328;2023-11-21T03:11:09;54.02;35.36;69.28;;
57092;Laerm;42968;52.094;4.328;2023-11-21T03:13:34;48.96;34.69;62.23;;
57092;Laerm;42968;52.094;4.328;2023-11-21T03:16:00;47.87;35.66;63.07;;
57092;Laerm;42968;52.094;4.328;2023-11-21T03:18:25;41.46;35.66;53.65;;
57092;Laerm;42968;52.094;4.328;2023-11-21T03:20:51;40.75;33.90;60.79;;
57092;Laerm;42968;52.094;4.328;2023-11-21T03:23:17;39.81;34.69;50.46;;
57092;Laerm;42968;52.094;4.328;2023-11-21T03:25:42;39.17;34.31;45.57;;
57092;Laerm;42968;52.094;4.328;2023-11-21T03:28:07;53.03;35.04;69.61;;
57092;Laerm;42968;52.094;4.328;2023-11-21T03:30:33;53.08;35.94;69.64;;
57092;Laerm;42968;52.094;4.328;2023-11-21T03:32:58;51.08;35.66;69.39;;
57092;Laerm;42968;52.094;4.328;2023-11-21T03:35:24;42.58;35.04;59.47;;
57092;Laerm;42968;52.094;4.328;2023-11-21T03:37:49;56.18;35.04;72.14;;
57092;Laerm;42968;52.094;4.328;2023-11-21T03:40:14;51.70;34.69;68.10;;
57092;Laerm;42968;52.094;4.328;2023-11-21T03:42:40;63.29;35.36;84.26;;
57092;Laerm;42968;52.094;4.328;2023-11-21T03:45:06;43.70;37.12;58.55;;
57092;Laerm;42968;52.094;4.328;2023-11-21T03:47:31;53.89;38.21;72.38;;
57092;Laerm;42968;52.094;4.328;2023-11-21T03:49:56;61.96;39.35;76.37;;
57092;Laerm;42968;52.094;4.328;2023-11-21T03:52:22;53.41;36.91;72.04;;
57092;Laerm;42968;52.094;4.328;2023-11-21T03:54:47;61.68;39.70;77.44;;
57092;Laerm;42968;52.094;4.328;2023-11-21T03:57:12;61.44;37.12;75.17;;
57092;Laerm;42968;52.094;4.328;2023-11-21T03:59:41;59.15;35.66;79.52;;
57092;Laerm;42968;52.094;4.328;2023-11-21T04:02:07;57.33;35.94;72.47;;
57092;Laerm;42968;52.094;4.328;2023-11-21T04:04:32;59.94;38.37;75.93;;
57092;Laerm;42968;52.094;4.328;2023-11-21T04:06:58;60.42;38.37;75.14;;
57092;Laerm;42968;52.094;4.328;2023-11-21T04:09:23;58.97;36.45;74.65;;
57092;Laerm;42968;52.094;4.328;2023-11-21T04:11:50;64.73;37.52;79.41;;
57092;Laerm;42968;52.094;4.328;2023-11-21T04:14:15;62.77;39.08;76.96;;
57092;Laerm;42968;52.094;4.328;2023-11-21T04:16:41;61.65;38.81;75.27;;
57092;Laerm;42968;52.094;4.328;2023-11-21T04:19:06;61.69;40.43;75.81;;
57092;Laerm;42968;52.094;4.328;2023-11-21T04:21:31;66.68;43.09;77.54;;
57092;Laerm;42968;52.094;4.328;2023-11-21T04:23:58;61.61;38.37;76.66;;
57092;Laerm;42968;52.094;4.328;2023-11-21T04:26:23;66.35;45.60;79.16;;
57092;Laerm;42968;52.094;4.328;2023-11-21T04:28:48;67.56;46.05;80.60;;
57092;Laerm;42968;52.094;4.328;2023-11-21T04:31:14;64.25;42.47;77.54;;
57092;Laerm;42968;52.094;4.328;2023-11-21T04:33:39;66.09;42.41;77.60;;
57092;Laerm;42968;52.094;4.328;2023-11-21T04:36:04;66.18;41.53;82.24;;
57092;Laerm;42968;52.094;4.328;2023-11-21T04:38:30;66.90;39.58;81.35;;
57092;Laerm;42968;52.094;4.328;2023-11-21T04:40:55;62.30;38.52;78.72;;
57092;Laerm;42968;52.094;4.328;2023-11-21T04:43:20;65.83;45.45;80.44;;
57092;Laerm;42968;52.094;4.328;2023-11-21T04:45:46;67.60;41.75;83.04;;
57092;Laerm;42968;52.094;4.328;2023-11-21T04:48:11;66.12;47.36;77.55;;
57092;Laerm;42968;52.094;4.328;2023-11-21T04:50:36;67.38;44.83;77.76;;
57092;Laerm;42968;52.094;4.328;2023-11-21T04:53:01;70.53;52.36;85.18;;
57092;Laerm;42968;52.094;4.328;2023-11-21T04:55:27;67.25;46.43;79.24;;
57092;Laerm;42968;52.094;4.328;2023-11-21T04:57:53;66.15;45.17;78.43;;
57092;Laerm;42968;52.094;4.328;2023-11-21T05:00:18;66.91;43.77;78.48;;
57092;Laerm;42968;52.094;4.328;2023-11-21T05:02:44;66.65;42.65;80.71;;
57092;Laerm;42968;52.094;4.328;2023-11-21T05:05:09;68.11;46.64;83.19;;
57092;Laerm;42968;52.094;4.328;2023-11-21T05:07:35;65.70;48.49;77.57;;
57092;Laerm;42968;52.094;4.328;2023-11-21T05:10:00;67.77;42.93;85.64;;
57092;Laerm;42968;52.094;4.328;2023-11-21T05:12:30;70.08;50.38;82.19;;
57092;Laerm;42968;52.094;4.328;2023-11-21T05:14:59;72.61;55.10;85.74;;
57092;Laerm;42968;52.094;4.328;2023-11-21T05:17:25;71.17;56.60;81.19;;
57092;Laerm;42968;52.094;4.328;2023-11-21T05:19:51;69.45;52.98;77.56;;
57092;Laerm;42968;52.094;4.328;2023-11-21T05:22:16;67.82;48.81;78.64;;
57092;Laerm;42968;52.094;4.328;2023-11-21T05:24:41;70.62;50.62;85.06;;
57092;Laerm;42968;52.094;4.328;2023-11-21T05:27:07;71.13;52.57;83.89;;
57092;Laerm;42968;52.094;4.328;2023-11-21T05:29:34;67.69;48.36;77.96;;
57092;Laerm;42968;52.094;4.328;2023-11-21T05:31:59;70.12;52.90;78.89;;
57092;Laerm;42968;52.094;4.328;2023-11-21T05:34:25;71.52;55.07;83.81;;
57092;Laerm;42968;52.094;4.328;2023-11-21T05:36:51;70.88;52.51;80.26;;
57092;Laerm;42968;52.094;4.328;2023-11-21T05:39:16;71.93;52.54;85.04;;
57092;Laerm;42968;52.094;4.328;2023-11-21T05:41:45;69.67;51.56;77.58;;
57092;Laerm;42968;52.094;4.328;2023-11-21T05:44:11;72.55;53.55;82.11;;
57092;Laerm;42968;52.094;4.328;2023-11-21T05:46:39;71.97;56.20;85.28;;
57092;Laerm;42968;52.094;4.328;2023-11-21T05:49:05;72.17;56.50;81.88;;
57092;Laerm;42968;52.094;4.328;2023-11-21T05:51:30;69.64;54.12;77.11;;
57092;Laerm;42968;52.094;4.328;2023-11-21T05:53:56;70.35;55.44;77.58;;
57092;Laerm;42968;52.094;4.328;2023-11-21T05:56:21;71.01;55.35;83.54;;
57092;Laerm;42968;52.094;4.328;2023-11-21T05:58:46;71.44;49.65;79.51;;
57092;Laerm;42968;52.094;4.328;2023-11-21T06:01:11;72.04;50.30;85.78;;
57092;Laerm;42968;52.094;4.328;2023-11-21T06:03:38;70.12;50.73;78.04;;
57092;Laerm;42968;52.094;4.328;2023-11-21T06:06:03;71.94;53.42;81.52;;
57092;Laerm;42968;52.094;4.328;2023-11-21T06:08:29;70.82;52.83;81.30;;
57092;Laerm;42968;52.094;4.328;2023-11-21T06:10:54;72.30;57.33;82.36;;
57092;Laerm;42968;52.094;4.328;2023-11-21T06:13:20;70.66;53.41;78.31;;
57092;Laerm;42968;52.094;4.328;2023-11-21T06:15:49;74.03;56.18;85.91;;
57092;Laerm;42968;52.094;4.328;2023-11-21T06:18:14;71.46;54.24;80.41;;
57092;Laerm;42968;52.094;4.328;2023-11-21T06:20:39;71.80;48.95;80.49;;
57092;Laerm;42968;52.094;4.328;2023-11-21T06:23:05;71.63;55.85;79.97;;
57092;Laerm;42968;52.094;4.328;2023-11-21T06:25:30;71.70;52.92;79.67;;
57092;Laerm;42968;52.094;4.328;2023-11-21T06:27:58;72.47;54.65;79.08;;
57092;Laerm;42968;52.094;4.328;2023-11-21T06:30:23;71.54;52.89;84.67;;
57092;Laerm;42968;52.094;4.328;2023-11-21T06:32:48;72.15;52.67;84.65;;
57092;Laerm;42968;52.094;4.328;2023-11-21T06:35:15;71.06;51.50;81.43;;
57092;Laerm;42968;52.094;4.328;2023-11-21T06:37:40;71.99;52.72;80.60;;
57092;Laerm;42968;52.094;4.328;2023-11-21T06:40:05;71.08;49.06;80.14;;
57092;Laerm;42968;52.094;4.328;2023-11-21T06:42:31;71.97;60.29;80.21;;
57092;Laerm;42968;52.094;4.328;2023-11-21T06:44:57;71.34;53.19;80.34;;
57092;Laerm;42968;52.094;4.328;2023-11-21T06:47:25;70.83;51.66;77.05;;
57092;Laerm;42968;52.094;4.328;2023-11-21T06:49:51;74.06;51.70;88.42;;
57092;Laerm;42968;52.094;4.328;2023-11-21T06:52:16;71.86;59.40;82.40;;
57092;Laerm;42968;52.094;4.328;2023-11-21T06:54:41;71.20;61.53;83.98;;
57092;Laerm;42968;52.094;4.328;2023-11-21T06:57:07;72.48;58.04;82.77;;
57092;Laerm;42968;52.094;4.328;2023-11-21T06:59:32;72.95;50.53;81.77;;
57092;Laerm;42968;52.094;4.328;2023-11-21T07:01:58;72.79;53.07;80.30;;
57092;Laerm;42968;52.094;4.328;2023-11-21T07:04:23;70.95;60.19;81.03;;
57092;Laerm;42968;52.094;4.328;2023-11-21T07:06:50;71.17;55.43;78.91;;
57092;Laerm;42968;52.094;4.328;2023-11-21T07:09:16;71.44;59.51;80.14;;
57092;Laerm;42968;52.094;4.328;2023-11-21T07:11:41;72.33;55.75;85.03;;
57092;Laerm;42968;52.094;4.328;2023-11-21T07:14:06;72.10;59.97;83.91;;
57092;Laerm;42968;52.094;4.328;2023-11-21T07:16:36;72.38;61.56;85.64;;
57092;Laerm;42968;52.094;4.328;2023-11-21T07:19:04;70.03;55.63;79.37;;
57092;Laerm;42968;52.094;4.328;2023-11-21T07:21:31;71.91;60.46;88.01;;
57092;Laerm;42968;52.094;4.328;2023-11-21T07:23:56;71.72;59.42;79.47;;
57092;Laerm;42968;52.094;4.328;2023-11-21T07:26:22;72.63;58.99;91.82;;
57092;Laerm;42968;52.094;4.328;2023-11-21T07:28:47;70.74;58.50;82.39;;
57092;Laerm;42968;52.094;4.328;2023-11-21T07:31:13;71.06;59.15;78.11;;
57092;Laerm;42968;52.094;4.328;2023-11-21T07:33:38;73.32;61.94;80.81;;
57092;Laerm;42968;52.094;4.328;2023-11-21T07:36:04;71.14;61.41;79.47;;
57092;Laerm;42968;52.094;4.328;2023-11-21T07:38:29;73.51;60.23;87.38;;
57092;Laerm;42968;52.094;4.328;2023-11-21T07:40:55;73.02;55.28;81.14;;
57092;Laerm;42968;52.094;4.328;2023-11-21T07:43:20;73.71;57.84;82.63;;
57092;Laerm;42968;52.094;4.328;2023-11-21T07:45:45;73.26;58.18;80.98;;
57092;Laerm;42968;52.094;4.328;2023-11-21T07:48:11;72.47;59.38;79.51;;
57092;Laerm;42968;52.094;4.328;2023-11-21T07:50:36;73.12;59.06;79.40;;
57092;Laerm;42968;52.094;4.328;2023-11-21T07:53:01;73.67;52.01;84.27;;
57092;Laerm;42968;52.094;4.328;2023-11-21T07:55:26;71.09;53.71;80.13;;
57092;Laerm;42968;52.094;4.328;2023-11-21T08:00:18;71.22;54.21;79.38;;
57092;Laerm;42968;52.094;4.328;2023-11-21T08:02:43;70.43;54.33;79.80;;
57092;Laerm;42968;52.094;4.328;2023-11-21T08:05:11;72.48;61.21;82.00;;
57092;Laerm;42968;52.094;4.328;2023-11-21T08:07:36;73.40;52.83;80.28;;
57092;Laerm;42968;52.094;4.328;2023-11-21T08:10:01;72.94;49.97;84.39;;
57092;Laerm;42968;52.094;4.328;2023-11-21T08:12:27;72.33;59.66;83.81;;
57092;Laerm;42968;52.094;4.328;2023-11-21T08:14:52;71.81;53.85;78.01;;
57092;Laerm;42968;52.094;4.328;2023-11-21T08:17:18;71.76;56.58;78.70;;
57092;Laerm;42968;52.094;4.328;2023-11-21T08:19:45;70.96;58.45;79.63;;
57092;Laerm;42968;52.094;4.328;2023-11-21T08:22:14;71.61;55.01;78.34;;
57092;Laerm;42968;52.094;4.328;2023-11-21T08:24:41;69.98;51.08;79.67;;
57092;Laerm;42968;52.094;4.328;2023-11-21T08:27:06;72.50;57.53;80.74;;
57092;Laerm;42968;52.094;4.328;2023-11-21T08:29:31;71.64;56.62;79.84;;
57092;Laerm;42968;52.094;4.328;2023-11-21T08:31:57;71.41;58.31;79.55;;
57092;Laerm;42968;52.094;4.328;2023-11-21T08:34:22;70.55;53.52;79.48;;
57092;Laerm;42968;52.094;4.328;2023-11-21T08:36:47;72.10;49.56;80.45;;
57092;Laerm;42968;52.094;4.328;2023-11-21T08:39:13;71.52;55.49;79.17;;
57092;Laerm;42968;52.094;4.328;2023-11-21T08:41:38;72.59;53.18;78.84;;
57092;Laerm;42968;52.094;4.328;2023-11-21T08:44:03;69.59;50.21;76.67;;
57092;Laerm;42968;52.094;4.328;2023-11-21T08:46:32;70.29;54.47;81.80;;
57092;Laerm;42968;52.094;4.328;2023-11-21T08:48:58;71.37;53.93;78.40;;
57092;Laerm;42968;52.094;4.328;2023-11-21T08:51:24;70.65;50.93;78.48;;
57092;Laerm;42968;52.094;4.328;2023-11-21T08:53:50;71.83;58.95;81.82;;
57092;Laerm;42968;52.094;4.328;2023-11-21T08:56:15;70.61;50.26;78.99;;
57092;Laerm;42968;52.094;4.328;2023-11-21T08:58:40;71.13;58.28;79.08;;
57092;Laerm;42968;52.094;4.328;2023-11-21T09:01:06;70.48;56.35;77.84;;
57092;Laerm;42968;52.094;4.328;2023-11-21T09:03:32;71.47;54.50;80.14;;
57092;Laerm;42968;52.094;4.328;2023-11-21T09:05:59;72.26;60.97;83.54;;
57092;Laerm;42968;52.094;4.328;2023-11-21T09:08:24;69.17;53.85;78.82;;
57092;Laerm;42968;52.094;4.328;2023-11-21T09:10:50;72.16;52.09;100.21;;
57092;Laerm;42968;52.094;4.328;2023-11-21T09:13:15;71.24;57.51;79.59;;
57092;Laerm;42968;52.094;4.328;2023-11-21T09:15:43;70.07;49.52;82.65;;
57092;Laerm;42968;52.094;4.328;2023-11-21T09:18:11;71.65;51.50;79.65;;
57092;Laerm;42968;52.094;4.328;2023-11-21T09:20:36;69.68;52.31;79.18;;
57092;Laerm;42968;52.094;4.328;2023-11-21T09:23:01;70.61;47.50;78.54;;
57092;Laerm;42968;52.094;4.328;2023-11-21T09:25:26;73.24;49.65;88.78;;
57092;Laerm;42968;52.094;4.328;2023-11-21T09:27:53;70.02;56.94;79.53;;
57092;Laerm;42968;52.094;4.328;2023-11-21T09:30:19;70.05;58.88;76.18;;
57092;Laerm;42968;52.094;4.328;2023-11-21T09:32:45;70.37;60.05;78.83;;
57092;Laerm;42968;52.094;4.328;2023-11-21T09:35:10;70.98;56.29;82.02;;
57092;Laerm;42968;52.094;4.328;2023-11-21T09:37:36;71.45;55.22;79.96;;
57092;Laerm;42968;52.094;4.328;2023-11-21T09:40:03;70.22;58.33;79.96;;
57092;Laerm;42968;52.094;4.328;2023-11-21T09:42:30;72.07;52.62;83.26;;
57092;Laerm;42968;52.094;4.328;2023-11-21T09:47:56;69.45;48.88;80.90;;
57092;Laerm;42968;52.094;4.328;2023-11-21T09:50:22;71.29;60.04;79.29;;
57092;Laerm;42968;52.094;4.328;2023-11-21T09:52:55;70.88;53.34;79.00;;
57092;Laerm;42968;52.094;4.328;2023-11-21T09:55:22;76.07;55.21;97.37;;
57092;Laerm;42968;52.094;4.328;2023-11-21T09:57:51;70.33;51.64;77.96;;
57092;Laerm;42968;52.094;4.328;2023-11-21T10:00:17;71.54;60.63;78.84;;
57092;Laerm;42968;52.094;4.328;2023-11-21T10:02:45;69.71;56.41;78.52;;
57092;Laerm;42968;52.094;4.328;2023-11-21T10:05:12;70.40;55.09;81.80;;
57092;Laerm;42968;52.094;4.328;2023-11-21T10:07:37;68.97;53.96;76.52;;
57092;Laerm;42968;52.094;4.328;2023-11-21T10:10:05;70.30;50.70;78.51;;
57092;Laerm;42968;52.094;4.328;2023-11-21T10:12:30;69.82;53.74;77.00;;
57092;Laerm;42968;52.094;4.328;2023-11-21T10:14:56;70.74;51.38;78.53;;
57092;Laerm;42968;52.094;4.328;2023-11-21T10:17:24;71.44;58.55;82.25;;
57092;Laerm;42968;52.094;4.328;2023-11-21T10:19:54;69.31;54.73;75.59;;
57092;Laerm;42968;52.094;4.328;2023-11-21T10:22:21;70.59;56.04;80.75;;
57092;Laerm;42968;52.094;4.328;2023-11-21T10:24:46;70.89;58.38;80.47;;
57092;Laerm;42968;52.094;4.328;2023-11-21T10:27:12;70.56;49.70;77.32;;
57092;Laerm;42968;52.094;4.328;2023-11-21T10:29:38;70.96;52.26;81.47;;
57092;Laerm;42968;52.094;4.328;2023-11-21T10:32:07;72.23;51.59;81.18;;
57092;Laerm;42968;52.094;4.328;2023-11-21T10:34:32;70.57;54.59;78.16;;
57092;Laerm;42968;52.094;4.328;2023-11-21T10:36:58;72.14;51.03;84.09;;
57092;Laerm;42968;52.094;4.328;2023-11-21T10:39:24;69.77;50.37;77.98;;
57092;Laerm;42968;52.094;4.328;2023-11-21T10:41:52;70.42;48.16;78.39;;
57092;Laerm;42968;52.094;4.328;2023-11-21T10:44:18;71.21;50.45;80.21;;
57092;Laerm;42968;52.094;4.328;2023-11-21T10:46:53;70.14;55.43;78.14;;
57092;Laerm;42968;52.094;4.328;2023-11-21T10:49:21;68.95;49.19;77.93;;
57092;Laerm;42968;52.094;4.328;2023-11-21T10:51:46;70.04;51.20;79.54;;
57092;Laerm;42968;52.094;4.328;2023-11-21T10:54:17;70.18;57.39;80.97;;
57092;Laerm;42968;52.094;4.328;2023-11-21T10:56:42;70.14;53.38;79.22;;
57092;Laerm;42968;52.094;4.328;2023-11-21T10:59:12;70.62;47.88;83.33;;
57092;Laerm;42968;52.094;4.328;2023-11-21T11:01:40;71.17;52.47;79.74;;
57092;Laerm;42968;52.094;4.328;2023-11-21T11:04:08;70.00;56.20;78.27;;
57092;Laerm;42968;52.094;4.328;2023-11-21T11:06:39;69.89;53.71;77.60;;
57092;Laerm;42968;52.094;4.328;2023-11-21T11:09:05;74.61;60.05;85.09;;
57092;Laerm;42968;52.094;4.328;2023-11-21T11:11:33;70.33;53.01;80.26;;
57092;Laerm;42968;52.094;4.328;2023-11-21T11:13:58;71.74;58.57;81.17;;
57092;Laerm;42968;52.094;4.328;2023-11-21T11:16:25;71.03;54.02;82.92;;
57092;Laerm;42968;52.094;4.328;2023-11-21T11:18:53;72.12;53.49;82.63;;
57092;Laerm;42968;52.094;4.328;2023-11-21T11:21:31;69.45;56.38;77.77;;
57092;Laerm;42968;52.094;4.328;2023-11-21T11:26:47;71.72;55.77;86.22;;
57092;Laerm;42968;52.094;4.328;2023-11-21T11:29:33;70.35;51.48;78.64;;
57092;Laerm;42968;52.094;4.328;2023-11-21T11:32:16;69.43;51.25;78.81;;
57092;Laerm;42968;52.094;4.328;2023-11-21T11:37:27;70.72;55.67;78.81;;
57092;Laerm;42968;52.094;4.328;2023-11-21T11:39:52;70.50;59.51;81.47;;
57092;Laerm;42968;52.094;4.328;2023-11-21T11:42:19;69.73;54.02;76.82;;
57092;Laerm;42968;52.094;4.328;2023-11-21T11:44:48;68.80;57.47;75.76;;
57092;Laerm;42968;52.094;4.328;2023-11-21T11:47:23;69.36;51.96;78.74;;
57092;Laerm;42968;52.094;4.328;2023-11-21T11:49:57;74.42;49.00;88.27;;
57092;Laerm;42968;52.094;4.328;2023-11-21T11:52:32;69.67;53.91;78.03;;
57092;Laerm;42968;52.094;4.328;2023-11-21T11:54:59;70.69;48.83;80.19;;
57092;Laerm;42968;52.094;4.328;2023-11-21T11:57:24;70.07;53.33;81.86;;
57092;Laerm;42968;52.094;4.328;2023-11-21T12:00:09;71.06;56.16;78.98;;
57092;Laerm;42968;52.094;4.328;2023-11-21T12:02:41;69.66;49.90;76.72;;
57092;Laerm;42968;52.094;4.328;2023-11-21T12:05:10;69.66;53.78;76.80;;
57092;Laerm;42968;52.094;4.328;2023-11-21T12:07:39;70.99;55.59;78.77;;
57092;Laerm;42968;52.094;4.328;2023-11-21T12:10:06;70.15;48.70;82.47;;
57092;Laerm;42968;52.094;4.328;2023-11-21T12:12:31;70.57;57.89;79.07;;
57092;Laerm;42968;52.094;4.328;2023-11-21T12:14:58;72.15;54.64;85.45;;
57092;Laerm;42968;52.094;4.328;2023-11-21T12:17:23;70.21;49.65;79.62;;
57092;Laerm;42968;52.094;4.328;2023-11-21T12:19:49;69.45;55.65;78.62;;
57092;Laerm;42968;52.094;4.328;2023-11-21T12:22:17;71.45;56.35;82.12;;
57092;Laerm;42968;52.094;4.328;2023-11-21T12:24:43;69.93;53.51;80.61;;
57092;Laerm;42968;52.094;4.328;2023-11-21T12:27:09;70.06;52.30;79.13;;
57092;Laerm;42968;52.094;4.328;2023-11-21T12:29:34;71.06;51.57;86.34;;
57092;Laerm;42968;52.094;4.328;2023-11-21T12:32:02;69.51;51.70;80.06;;
57092;Laerm;42968;52.094;4.328;2023-11-21T12:34:28;71.13;57.33;80.57;;
57092;Laerm;42968;52.094;4.328;2023-11-21T12:36:53;70.79;55.17;80.34;;
57092;Laerm;42968;52.094;4.328;2023-11-21T12:39:19;71.21;55.28;79.26;;
57092;Laerm;42968;52.094;4.328;2023-11-21T12:41:47;69.32;51.68;79.56;;
57092;Laerm;42968;52.094;4.328;2023-11-21T12:44:12;70.95;57.79;80.74;;
57092;Laerm;42968;52.094;4.328;2023-11-21T12:46:41;70.36;53.36;78.54;;
57092;Laerm;42968;52.094;4.328;2023-11-21T12:49:06;69.69;51.34;78.29;;
57092;Laerm;42968;52.094;4.328;2023-11-21T12:51:31;71.46;53.50;80.61;;
57092;Laerm;42968;52.094;4.328;2023-11-21T12:53:57;70.66;50.66;78.56;;
57092;Laerm;42968;52.094;4.328;2023-11-21T12:56:23;71.09;57.33;79.69;;
57092;Laerm;42968;52.094;4.328;2023-11-21T12:58:48;70.62;51.14;78.76;;
57092;Laerm;42968;52.094;4.328;2023-11-21T13:01:15;70.53;48.58;80.89;;
57092;Laerm;42968;52.094;4.328;2023-11-21T13:03:45;70.01;51.26;81.44;;
57092;Laerm;42968;52.094;4.328;2023-11-21T13:06:13;70.83;52.26;78.24;;
57092;Laerm;42968;52.094;4.328;2023-11-21T13:08:38;70.08;50.10;80.45;;
57092;Laerm;42968;52.094;4.328;2023-11-21T13:11:07;69.08;49.03;80.98;;
57092;Laerm;42968;52.094;4.328;2023-11-21T13:13:32;71.06;51.37;80.17;;
57092;Laerm;42968;52.094;4.328;2023-11-21T13:16:01;70.95;53.25;77.75;;
57092;Laerm;42968;52.094;4.328;2023-11-21T13:18:29;75.27;54.77;90.91;;
57092;Laerm;42968;52.094;4.328;2023-11-21T13:20:56;70.71;57.04;79.09;;
57092;Laerm;42968;52.094;4.328;2023-11-21T13:23:22;72.22;58.53;91.67;;
57092;Laerm;42968;52.094;4.328;2023-11-21T13:25:48;70.84;54.11;80.46;;
57092;Laerm;42968;52.094;4.328;2023-11-21T13:28:14;69.01;53.01;79.57;;
57092;Laerm;42968;52.094;4.328;2023-11-21T13:30:43;70.63;53.91;81.72;;
57092;Laerm;42968;52.094;4.328;2023-11-21T13:33:09;70.68;56.00;87.88;;
57092;Laerm;42968;52.094;4.328;2023-11-21T13:35:37;69.86;57.80;78.63;;
57092;Laerm;42968;52.094;4.328;2023-11-21T13:38:10;68.91;51.84;77.71;;
57092;Laerm;42968;52.094;4.328;2023-11-21T13:40:36;71.82;51.37;82.70;;
57092;Laerm;42968;52.094;4.328;2023-11-21T13:43:08;69.92;46.45;77.92;;
57092;Laerm;42968;52.094;4.328;2023-11-21T13:45:38;70.09;57.53;78.23;;
57092;Laerm;42968;52.094;4.328;2023-11-21T13:48:06;71.62;56.03;80.66;;
57092;Laerm;42968;52.094;4.328;2023-11-21T13:50:45;71.09;56.51;81.86;;